Time;durP1;ratioP1;P1;durP2;ratioP2;P2;SDS_P1;SDS_P2;PMS_P1;PMS_P2;Temp;Humidity;BMP_temperature;BMP_pressure;BME280_temperature;BME280_humidity;BME280_pressure;Samples;Min_cycle;Max_cycle;Signal;HPM_P1;HPM_P2
2023/04/29 00:01:51;;;;;;;30.30;22.70;;;10.90;99.90;;;;;;4842445;29;20061;-93
2023/04/29 00:04:17;;;;;;;29.33;23.25;;;10.90;99.90;;;;;;4842762;29;20137;-94
2023/04/29 00:06:42;;;;;;;33.60;23.17;;;10.80;99.90;;;;;;4842732;29;20054;-93
2023/04/29 00:09:08;;;;;;;35.75;22.55;;;10.80;99.90;;;;;;4844265;29;20053;-94
2023/04/29 00:11:33;;;;;;;33.45;22.77;;;10.80;99.90;;;;;;4843959;29;20098;-94
2023/04/29 00:14:00;;;;;;;32.40;22.05;;;10.80;99.90;;;;;;4842641;29;20387;-94
2023/04/29 00:16:25;;;;;;;35.90;22.33;;;10.80;99.90;;;;;;4843082;29;20049;-93
2023/04/29 00:18:51;;;;;;;36.13;22.25;;;10.80;99.90;;;;;;4836289;29;20400;-93
2023/04/29 00:21:17;;;;;;;35.17;23.17;;;10.70;99.90;;;;;;4851951;29;20103;-92
2023/04/29 00:23:42;;;;;;;30.67;23.10;;;10.70;99.90;;;;;;4853320;29;20045;-93
2023/04/29 00:26:08;;;;;;;34.33;23.02;;;10.60;99.90;;;;;;4842035;29;20396;-92
2023/04/29 00:28:33;;;;;;;33.45;22.30;;;10.60;99.90;;;;;;4852937;29;20107;-94
2023/04/29 00:30:59;;;;;;;29.55;21.55;;;10.60;99.90;;;;;;4830146;29;20125;-94
2023/04/29 00:33:25;;;;;;;33.05;23.13;;;10.60;99.90;;;;;;4837250;29;20101;-94
2023/04/29 00:35:50;;;;;;;29.17;22.27;;;10.60;99.90;;;;;;4845088;29;20041;-93
2023/04/29 00:38:16;;;;;;;33.08;22.08;;;10.60;99.90;;;;;;4843998;29;20072;-94
2023/04/29 00:40:42;;;;;;;33.47;23.23;;;10.60;99.90;;;;;;4861848;29;20040;-93
2023/04/29 00:43:08;;;;;;;32.13;22.90;;;10.60;99.90;;;;;;4846883;29;20087;-93
2023/04/29 00:45:33;;;;;;;34.08;23.65;;;10.60;99.90;;;;;;4851256;29;20056;-92
2023/04/29 00:47:59;;;;;;;36.92;23.23;;;10.50;99.90;;;;;;4834196;29;20417;-95
2023/04/29 00:50:25;;;;;;;39.05;24.48;;;10.50;99.90;;;;;;4830090;29;20050;-92
2023/04/29 00:52:51;;;;;;;35.45;23.48;;;10.50;99.90;;;;;;4845428;29;20057;-94
2023/04/29 00:55:17;;;;;;;39.03;25.38;;;10.50;99.90;;;;;;4835433;29;20053;-91
2023/04/29 00:57:46;;;;;;;33.63;23.77;;;10.50;99.90;;;;;;4868326;29;20049;-95
2023/04/29 01:00:14;;;;;;;36.25;23.77;;;10.50;99.90;;;;;;4843385;29;20053;-94
2023/04/29 01:02:39;;;;;;;34.70;23.98;;;10.50;99.90;;;;;;4846315;29;20057;-94
2023/04/29 01:05:05;;;;;;;39.75;24.88;;;10.50;99.90;;;;;;4846754;29;20050;-95
2023/04/29 01:07:41;;;;;;;33.83;23.45;;;10.50;99.90;;;;;;4845363;29;20387;-93
2023/04/29 01:10:28;;;;;;;35.00;23.92;;;10.50;99.90;;;;;;4829754;29;20073;-94
2023/04/29 01:13:18;;;;;;;28.15;21.65;;;10.50;99.90;;;;;;4846345;29;20046;-94
2023/04/29 01:15:53;;;;;;;33.22;23.45;;;10.50;99.90;;;;;;4838639;29;20057;-93
2023/04/29 01:18:27;;;;;;;38.55;23.67;;;10.50;99.90;;;;;;4846062;29;20142;-94
2023/04/29 01:20:53;;;;;;;34.97;22.05;;;10.50;99.90;;;;;;4832892;29;20042;-93
2023/04/29 01:23:19;;;;;;;29.45;21.75;;;10.40;99.90;;;;;;4845106;29;20049;-95
2023/04/29 01:25:45;;;;;;;31.88;22.73;;;10.50;99.90;;;;;;4846332;29;20046;-95
2023/04/29 01:28:20;;;;;;;33.10;22.00;;;10.40;99.90;;;;;;4844852;29;20109;-94
2023/04/29 01:31:06;;;;;;;34.15;22.98;;;10.40;99.90;;;;;;4829560;29;20050;-95
2023/04/29 01:33:44;;;;;;;30.92;20.77;;;10.40;99.90;;;;;;4844761;29;20049;-94
2023/04/29 01:36:21;;;;;;;31.05;21.02;;;10.40;99.90;;;;;;4829372;29;20052;-93
2023/04/29 01:39:20;;;;;;;33.40;21.35;;;10.30;99.90;;;;;;4829562;29;20046;-95
2023/04/29 01:42:10;;;;;;;36.30;20.08;;;10.30;99.90;;;;;;4844099;29;20062;-94
2023/04/29 01:44:38;;;;;;;29.38;20.73;;;10.30;99.90;;;;;;4845865;29;20081;-94
2023/04/29 01:47:04;;;;;;;30.17;20.20;;;10.30;99.90;;;;;;4846000;29;20056;-93
2023/04/29 01:49:34;;;;;;;27.92;19.98;;;10.30;99.90;;;;;;4829594;29;20042;-93
2023/04/29 01:52:00;;;;;;;28.65;19.20;;;10.30;99.90;;;;;;4829024;29;20081;-93
2023/04/29 01:54:26;;;;;;;27.65;18.75;;;10.30;99.90;;;;;;4846273;29;20524;-93
2023/04/29 01:56:51;;;;;;;29.85;18.40;;;10.30;99.90;;;;;;4837922;29;20053;-94
2023/04/29 01:59:17;;;;;;;29.48;18.52;;;10.30;99.90;;;;;;4829074;29;20057;-94
2023/04/29 02:01:43;;;;;;;26.10;18.70;;;10.30;99.90;;;;;;4828510;29;20096;-93
2023/04/29 02:04:08;;;;;;;25.95;18.38;;;10.30;99.90;;;;;;4831994;29;20105;-93
2023/04/29 02:06:34;;;;;;;28.90;19.33;;;10.30;99.90;;;;;;4844804;29;20054;-93
2023/04/29 02:08:59;;;;;;;31.90;19.13;;;10.30;99.90;;;;;;4845365;29;20045;-94
2023/04/29 02:11:25;;;;;;;24.20;17.60;;;10.30;99.90;;;;;;4845163;29;20042;-93
2023/04/29 02:13:51;;;;;;;29.48;18.10;;;10.30;99.90;;;;;;4844433;29;20056;-93
2023/04/29 02:16:17;;;;;;;29.63;18.42;;;10.20;99.90;;;;;;4843857;29;20042;-93
2023/04/29 02:18:43;;;;;;;30.42;18.98;;;10.20;99.90;;;;;;4828100;29;20042;-93
2023/04/29 02:21:08;;;;;;;26.25;17.98;;;10.20;99.90;;;;;;4828782;29;20048;-95
2023/04/29 02:23:35;;;;;;;28.42;18.75;;;10.20;99.90;;;;;;4844541;29;20132;-93
2023/04/29 02:26:00;;;;;;;29.35;18.75;;;10.20;99.90;;;;;;4844921;29;20388;-94
2023/04/29 02:28:26;;;;;;;27.08;17.85;;;10.20;99.90;;;;;;4828460;29;20046;-93
2023/04/29 02:30:52;;;;;;;23.98;17.92;;;10.20;99.90;;;;;;4829036;29;20460;-95
2023/04/29 02:33:17;;;;;;;29.35;18.92;;;10.10;99.90;;;;;;4845159;29;20042;-95
2023/04/29 02:35:43;;;;;;;25.77;18.40;;;10.20;99.90;;;;;;4828735;29;20054;-94
2023/04/29 02:38:10;;;;;;;28.77;18.35;;;10.10;99.90;;;;;;4843902;29;20052;-94
2023/04/29 02:40:43;;;;;;;25.48;18.13;;;10.20;99.90;;;;;;4828118;29;20058;-94
2023/04/29 02:43:09;;;;;;;29.95;18.92;;;10.20;99.90;;;;;;4844845;29;20380;-94
2023/04/29 02:45:35;;;;;;;26.67;17.85;;;10.20;99.90;;;;;;4828279;29;20053;-94
2023/04/29 02:48:01;;;;;;;25.48;17.77;;;10.10;99.90;;;;;;4844382;29;20038;-94
2023/04/29 02:50:27;;;;;;;29.30;18.38;;;10.10;99.90;;;;;;4844151;29;20049;-93
2023/04/29 02:52:53;;;;;;;24.90;17.83;;;10.20;99.90;;;;;;4859463;29;20129;-94
2023/04/29 02:55:18;;;;;;;26.48;16.67;;;10.10;99.90;;;;;;4858960;29;20084;-93
2023/04/29 02:57:44;;;;;;;27.27;16.63;;;10.10;99.90;;;;;;4846391;29;20045;-94
2023/04/29 03:00:10;;;;;;;23.42;17.02;;;10.20;99.90;;;;;;4828962;29;20447;-94
2023/04/29 03:02:36;;;;;;;27.60;16.65;;;10.10;99.90;;;;;;4827839;29;20072;-95
2023/04/29 03:05:03;;;;;;;25.50;16.98;;;10.10;99.90;;;;;;4828863;29;20046;-94
2023/04/29 03:07:29;;;;;;;28.88;17.45;;;10.10;99.90;;;;;;4843028;29;20048;-95
2023/04/29 03:09:55;;;;;;;22.98;17.15;;;10.10;99.90;;;;;;4828242;29;20054;-94
2023/04/29 03:12:21;;;;;;;21.20;16.15;;;10.10;99.90;;;;;;4845480;29;20046;-94
2023/04/29 03:14:46;;;;;;;22.80;16.63;;;10.10;99.90;;;;;;4844111;29;20103;-94
2023/04/29 03:17:13;;;;;;;23.10;16.48;;;10.10;99.90;;;;;;4872136;29;20053;-94
2023/04/29 03:19:38;;;;;;;22.48;16.38;;;10.20;99.90;;;;;;4860129;29;20083;-95
2023/04/29 03:22:04;;;;;;;26.10;16.40;;;10.10;99.90;;;;;;4839596;29;20119;-94
2023/04/29 03:24:29;;;;;;;26.48;16.92;;;10.10;99.90;;;;;;4834787;29;20034;-94
2023/04/29 03:26:55;;;;;;;25.75;16.25;;;10.10;99.90;;;;;;4837927;29;20049;-94
2023/04/29 03:29:21;;;;;;;23.90;16.45;;;10.10;99.90;;;;;;4862617;29;20046;-94
2023/04/29 03:31:46;;;;;;;23.20;16.73;;;10.10;99.90;;;;;;4841345;29;20048;-94
2023/04/29 03:34:14;;;;;;;23.17;16.55;;;10.10;99.90;;;;;;4858192;29;20049;-94
2023/04/29 03:36:39;;;;;;;25.27;17.00;;;10.10;99.90;;;;;;4834550;29;20480;-94
2023/04/29 03:39:05;;;;;;;26.23;16.45;;;10.10;99.90;;;;;;4846430;29;20086;-94
2023/04/29 03:41:30;;;;;;;22.63;16.50;;;10.10;99.90;;;;;;4846164;29;20391;-95
2023/04/29 03:43:59;;;;;;;28.65;18.50;;;10.10;99.90;;;;;;4845423;29;20042;-93
2023/04/29 03:46:26;;;;;;;31.65;18.60;;;10.10;99.90;;;;;;4845417;29;20049;-95
2023/04/29 03:48:54;;;;;;;21.52;16.77;;;10.10;99.90;;;;;;4836644;29;20053;-94
2023/04/29 03:51:23;;;;;;;24.80;16.80;;;10.00;99.90;;;;;;4827622;29;20501;-94
2023/04/29 03:53:49;;;;;;;24.58;17.15;;;10.00;99.90;;;;;;4827750;29;20058;-94
2023/04/29 03:56:15;;;;;;;24.20;16.63;;;10.00;99.90;;;;;;4831907;29;20579;-94
2023/04/29 03:58:40;;;;;;;29.70;18.10;;;10.00;99.90;;;;;;4827895;29;20133;-94
2023/04/29 04:01:06;;;;;;;28.38;18.05;;;10.00;99.90;;;;;;4834329;29;20054;-94
2023/04/29 04:03:32;;;;;;;23.45;16.17;;;10.00;99.90;;;;;;4845003;29;20054;-94
2023/04/29 04:05:58;;;;;;;22.88;16.90;;;10.00;99.90;;;;;;4853855;29;20053;-94
2023/04/29 04:08:23;;;;;;;30.65;18.05;;;9.90;99.90;;;;;;4877970;29;20435;-94
2023/04/29 04:10:49;;;;;;;26.95;16.67;;;9.90;99.90;;;;;;4849569;29;20066;-94
2023/04/29 04:13:15;;;;;;;24.15;16.05;;;9.90;99.90;;;;;;4846583;29;20049;-95
2023/04/29 04:15:41;;;;;;;24.80;16.88;;;9.90;99.90;;;;;;4845439;29;20045;-93
2023/04/29 04:18:07;;;;;;;21.50;15.70;;;9.90;99.90;;;;;;4850825;29;20402;-96
2023/04/29 04:20:36;;;;;;;25.10;16.00;;;9.90;99.90;;;;;;4831104;29;20102;-96
2023/04/29 04:23:01;;;;;;;28.05;16.48;;;9.90;99.90;;;;;;4858169;29;20078;-93
2023/04/29 04:25:28;;;;;;;24.67;16.00;;;9.90;99.90;;;;;;4865710;29;20049;-94
2023/04/29 04:27:53;;;;;;;23.25;15.52;;;9.90;99.90;;;;;;4856664;29;20074;-94
2023/04/29 04:30:19;;;;;;;26.50;15.95;;;9.80;99.90;;;;;;4849199;29;20117;-93
2023/04/29 04:32:45;;;;;;;23.08;15.65;;;9.80;99.90;;;;;;4841881;29;20053;-93
2023/04/29 04:35:11;;;;;;;24.90;16.60;;;9.80;99.90;;;;;;4830494;29;20054;-93
2023/04/29 04:37:37;;;;;;;21.50;14.77;;;9.80;99.90;;;;;;4830831;29;20105;-94
2023/04/29 04:40:03;;;;;;;24.65;15.05;;;9.80;99.90;;;;;;4830829;29;20137;-93
2023/04/29 04:42:29;;;;;;;24.13;15.20;;;9.80;99.90;;;;;;4846947;29;20050;-92
2023/04/29 04:44:56;;;;;;;20.50;14.82;;;9.80;99.90;;;;;;4845542;29;20057;-94
2023/04/29 04:47:22;;;;;;;24.02;14.68;;;9.80;99.90;;;;;;4849759;29;20050;-92
2023/04/29 04:49:48;;;;;;;22.77;14.80;;;9.80;99.90;;;;;;4865371;29;20045;-93
2023/04/29 04:52:14;;;;;;;20.58;14.30;;;9.80;99.90;;;;;;4849230;29;20151;-93
2023/04/29 04:54:40;;;;;;;22.77;14.18;;;9.80;99.90;;;;;;4847094;29;20045;-92
2023/04/29 04:57:05;;;;;;;22.95;14.50;;;9.80;99.90;;;;;;4830510;29;20053;-94
2023/04/29 04:59:32;;;;;;;23.48;14.23;;;9.80;99.90;;;;;;4847300;29;20045;-93
2023/04/29 05:01:58;;;;;;;27.90;15.57;;;9.80;99.90;;;;;;4835113;29;20065;-91
2023/04/29 05:04:23;;;;;;;25.30;15.40;;;9.80;99.90;;;;;;4847094;29;20133;-92
2023/04/29 05:06:49;;;;;;;24.63;15.23;;;9.80;99.90;;;;;;4848629;29;20482;-94
2023/04/29 05:09:15;;;;;;;23.92;14.48;;;9.70;99.90;;;;;;4865108;29;20120;-93
2023/04/29 05:11:41;;;;;;;26.83;16.23;;;9.70;99.90;;;;;;4844735;29;20068;-93
2023/04/29 05:14:06;;;;;;;24.52;14.95;;;9.70;99.90;;;;;;4842412;29;20410;-93
2023/04/29 05:16:32;;;;;;;29.67;15.43;;;9.70;99.90;;;;;;4848618;29;20487;-94
2023/04/29 05:18:57;;;;;;;22.75;13.68;;;9.70;99.90;;;;;;4846263;29;20055;-93
2023/04/29 05:21:23;;;;;;;24.35;13.90;;;9.70;99.90;;;;;;4844999;29;20049;-93
2023/04/29 05:23:49;;;;;;;23.15;14.02;;;9.70;99.90;;;;;;4846442;29;20121;-93
2023/04/29 05:26:14;;;;;;;22.23;13.90;;;9.70;99.90;;;;;;4846445;29;20042;-93
2023/04/29 05:28:40;;;;;;;25.98;14.10;;;9.70;99.90;;;;;;4836388;29;20044;-93
2023/04/29 05:31:06;;;;;;;21.95;12.57;;;9.70;99.90;;;;;;4837265;29;20046;-93
2023/04/29 05:33:31;;;;;;;23.55;12.73;;;9.70;99.90;;;;;;4846052;29;20041;-94
2023/04/29 05:35:57;;;;;;;22.98;13.57;;;9.70;99.90;;;;;;4830172;29;20115;-93
2023/04/29 05:38:27;;;;;;;20.85;12.63;;;9.70;99.90;;;;;;4836591;29;20041;-92
2023/04/29 05:40:56;;;;;;;19.35;12.73;;;9.70;99.90;;;;;;4848114;29;20114;-93
2023/04/29 05:43:22;;;;;;;19.88;12.20;;;9.70;99.90;;;;;;4833382;29;20057;-93
2023/04/29 05:45:48;;;;;;;20.10;12.32;;;9.70;99.90;;;;;;4852859;29;20046;-93
2023/04/29 05:48:14;;;;;;;20.00;12.40;;;9.70;99.90;;;;;;4846173;29;20519;-93
2023/04/29 05:50:40;;;;;;;19.25;12.50;;;9.70;99.90;;;;;;4829357;29;20093;-94
2023/04/29 05:53:06;;;;;;;21.10;12.40;;;9.70;99.90;;;;;;4844475;29;20042;-93
2023/04/29 05:55:31;;;;;;;18.95;10.98;;;9.70;99.90;;;;;;4849715;29;20120;-94
2023/04/29 05:57:57;;;;;;;19.60;11.10;;;9.70;99.90;;;;;;4850841;29;20546;-94
2023/04/29 06:00:23;;;;;;;21.55;11.02;;;9.70;99.90;;;;;;4829568;29;20057;-93
2023/04/29 06:02:49;;;;;;;19.65;10.77;;;9.70;99.90;;;;;;4848949;29;20077;-93
2023/04/29 06:05:14;;;;;;;18.48;10.85;;;9.70;99.90;;;;;;4860021;29;20056;-92
2023/04/29 06:07:41;;;;;;;18.77;11.55;;;9.70;99.90;;;;;;4829380;29;20084;-93
2023/04/29 06:10:07;;;;;;;16.67;10.73;;;9.70;99.90;;;;;;4846099;29;20053;-93
2023/04/29 06:12:33;;;;;;;19.65;10.75;;;9.70;99.90;;;;;;4829187;29;20050;-93
2023/04/29 06:14:59;;;;;;;22.77;11.05;;;9.70;99.90;;;;;;4861778;29;20080;-93
2023/04/29 06:17:28;;;;;;;19.88;11.55;;;9.80;99.90;;;;;;4849303;29;20046;-93
2023/04/29 06:19:54;;;;;;;17.30;10.80;;;9.80;99.90;;;;;;4828476;29;20173;-91
2023/04/29 06:22:19;;;;;;;17.80;10.77;;;9.80;99.90;;;;;;4843862;29;20046;-91
2023/04/29 06:24:46;;;;;;;19.60;10.90;;;9.80;99.90;;;;;;4829854;29;20069;-92
2023/04/29 06:27:11;;;;;;;16.80;10.48;;;9.80;99.90;;;;;;4854949;29;20048;-93
2023/04/29 06:29:37;;;;;;;14.75;10.13;;;9.80;99.90;;;;;;4832723;29;20054;-92
2023/04/29 06:32:03;;;;;;;16.63;10.65;;;9.80;99.90;;;;;;4828277;29;20759;-93
2023/04/29 06:34:29;;;;;;;19.38;10.95;;;9.80;99.90;;;;;;4828581;29;20136;-93
2023/04/29 06:36:55;;;;;;;22.13;10.85;;;9.80;99.90;;;;;;4828493;29;20136;-93
2023/04/29 06:39:20;;;;;;;18.38;11.32;;;9.90;99.90;;;;;;4844406;29;20053;-93
2023/04/29 06:41:46;;;;;;;16.77;9.63;;;9.90;99.90;;;;;;4828295;29;20053;-93
2023/04/29 06:44:11;;;;;;;13.88;10.35;;;9.90;99.90;;;;;;4852244;29;20482;-88
2023/04/29 06:46:38;;;;;;;20.00;10.57;;;10.00;99.90;;;;;;4861115;29;20069;-92
2023/04/29 06:49:03;;;;;;;19.17;10.95;;;10.00;99.90;;;;;;4827062;29;20145;-91
2023/04/29 06:51:30;;;;;;;17.83;11.00;;;10.00;99.90;;;;;;4827323;29;20082;-91
2023/04/29 06:53:56;;;;;;;16.60;10.50;;;10.00;99.90;;;;;;4827168;29;20085;-92
2023/04/29 06:56:22;;;;;;;19.80;10.65;;;10.00;99.90;;;;;;4828266;29;20084;-91
2023/04/29 06:58:48;;;;;;;17.00;10.80;;;10.10;99.90;;;;;;4827464;29;20042;-91
2023/04/29 07:01:14;;;;;;;16.52;10.32;;;10.00;99.90;;;;;;4844623;29;20054;-92
2023/04/29 07:03:39;;;;;;;18.10;10.70;;;10.10;99.90;;;;;;4843548;29;20057;-92
2023/04/29 07:06:05;;;;;;;19.63;10.50;;;10.10;99.90;;;;;;4835298;29;20053;-93
2023/04/29 07:08:31;;;;;;;16.38;10.50;;;10.10;99.90;;;;;;4830680;29;20472;-93
2023/04/29 07:10:57;;;;;;;16.40;9.85;;;10.20;99.90;;;;;;4827385;29;20046;-91
2023/04/29 07:13:23;;;;;;;17.05;9.70;;;10.20;99.90;;;;;;4827685;29;20181;-88
2023/04/29 07:15:49;;;;;;;19.27;9.75;;;10.20;99.90;;;;;;4842452;29;20394;-91
2023/04/29 07:18:15;;;;;;;15.38;10.38;;;10.30;99.90;;;;;;4842821;29;20042;-88
2023/04/29 07:20:41;;;;;;;15.70;10.23;;;10.30;99.90;;;;;;4843824;29;20130;-88
2023/04/29 07:23:06;;;;;;;16.50;10.57;;;10.40;99.90;;;;;;4860905;29;20429;-89
2023/04/29 07:25:32;;;;;;;15.38;9.98;;;10.50;99.90;;;;;;4831903;29;20042;-88
2023/04/29 07:27:58;;;;;;;15.60;10.20;;;10.50;99.90;;;;;;4846657;29;20132;-88
2023/04/29 07:30:24;;;;;;;17.52;10.55;;;10.60;99.90;;;;;;4826507;29;20443;-88
2023/04/29 07:32:49;;;;;;;17.38;10.55;;;10.70;99.90;;;;;;4825909;29;20117;-89
2023/04/29 07:35:15;;;;;;;14.50;9.30;;;10.80;99.90;;;;;;4856515;29;20081;-89
2023/04/29 07:37:42;;;;;;;15.75;9.93;;;10.80;99.90;;;;;;4825850;29;20053;-89
2023/04/29 07:40:08;;;;;;;15.25;9.95;;;10.90;99.90;;;;;;4827889;29;20058;-90
2023/04/29 07:42:34;;;;;;;15.80;9.70;;;11.00;99.90;;;;;;4829155;29;20049;-90
2023/04/29 07:45:00;;;;;;;17.05;9.60;;;11.00;99.90;;;;;;4830180;29;20049;-88
2023/04/29 07:47:26;;;;;;;16.50;9.48;;;11.10;99.90;;;;;;4846003;29;20069;-89
2023/04/29 07:49:51;;;;;;;15.65;9.88;;;11.20;99.90;;;;;;4829018;29;20086;-90
2023/04/29 07:52:17;;;;;;;13.90;8.90;;;11.20;99.90;;;;;;4829588;29;20106;-90
2023/04/29 07:54:43;;;;;;;15.60;9.55;;;11.30;99.90;;;;;;4828811;29;20045;-89
2023/04/29 07:57:08;;;;;;;14.18;9.43;;;11.30;99.90;;;;;;4845688;29;20057;-90
2023/04/29 07:59:34;;;;;;;14.98;9.38;;;11.40;99.90;;;;;;4829442;29;20054;-90
2023/04/29 08:02:00;;;;;;;16.67;9.38;;;11.50;99.90;;;;;;4844776;29;20386;-88
2023/04/29 08:04:26;;;;;;;16.40;9.27;;;11.60;99.90;;;;;;4829237;29;20109;-93
2023/04/29 08:06:51;;;;;;;17.38;9.10;;;11.60;99.90;;;;;;4845628;29;20050;-89
2023/04/29 08:09:17;;;;;;;14.68;8.77;;;11.70;99.90;;;;;;4829344;29;20087;-90
2023/04/29 08:11:43;;;;;;;15.15;9.27;;;11.80;99.90;;;;;;4845151;29;20049;-90
2023/04/29 08:14:09;;;;;;;14.30;8.45;;;11.90;99.90;;;;;;4845929;29;20103;-89
2023/04/29 08:16:35;;;;;;;14.63;8.35;;;12.00;99.90;;;;;;4828760;29;20231;-89
2023/04/29 08:19:00;;;;;;;12.70;8.40;;;12.00;99.90;;;;;;4828046;29;20042;-90
2023/04/29 08:21:26;;;;;;;12.50;8.57;;;12.00;99.90;;;;;;4829669;29;20527;-91
2023/04/29 08:23:52;;;;;;;16.25;8.48;;;12.10;99.90;;;;;;4828868;29;20069;-91
2023/04/29 08:26:18;;;;;;;14.73;8.63;;;12.20;99.90;;;;;;4828228;29;20054;-89
2023/04/29 08:28:44;;;;;;;11.63;8.68;;;12.20;99.90;;;;;;4828546;29;20056;-91
2023/04/29 08:31:20;;;;;;;15.30;8.27;;;12.30;99.90;;;;;;4828272;29;20049;-90
2023/04/29 08:33:46;;;;;;;14.40;8.25;;;12.40;99.90;;;;;;4828347;29;20049;-91
2023/04/29 08:36:12;;;;;;;13.07;6.97;;;12.40;99.90;;;;;;4829071;29;20486;-90
2023/04/29 08:38:38;;;;;;;13.68;7.82;;;12.50;99.90;;;;;;4844756;29;20053;-90
2023/04/29 08:41:04;;;;;;;10.95;6.60;;;12.60;99.90;;;;;;4845967;29;20050;-91
2023/04/29 08:43:30;;;;;;;13.13;7.25;;;12.60;99.90;;;;;;4845716;29;20053;-90
2023/04/29 08:45:58;;;;;;;12.25;8.02;;;12.70;99.90;;;;;;4828744;29;20144;-91
2023/04/29 08:48:25;;;;;;;12.50;7.30;;;12.80;99.90;;;;;;4845353;29;20447;-89
2023/04/29 08:50:50;;;;;;;12.55;6.40;;;12.80;99.90;;;;;;4845070;29;20128;-89
2023/04/29 08:53:16;;;;;;;12.15;7.22;;;12.80;99.70;;;;;;4828197;29;20757;-91
2023/04/29 08:55:43;;;;;;;11.40;6.50;;;12.90;99.10;;;;;;4845775;29;20042;-91
2023/04/29 08:58:09;;;;;;;14.32;7.50;;;12.90;99.00;;;;;;4829829;29;20140;-91
2023/04/29 09:00:35;;;;;;;13.07;7.00;;;12.90;99.40;;;;;;4844605;29;20038;-90
2023/04/29 09:03:11;;;;;;;12.70;7.13;;;12.90;99.00;;;;;;4845255;29;20112;-90
2023/04/29 09:05:40;;;;;;;11.65;6.82;;;12.90;99.20;;;;;;4859579;29;20081;-90
2023/04/29 09:08:07;;;;;;;11.18;7.25;;;13.00;99.90;;;;;;4828324;29;20130;-91
2023/04/29 09:10:35;;;;;;;13.50;6.72;;;13.10;99.90;;;;;;4828479;29;20058;-89
2023/04/29 09:13:00;;;;;;;12.35;7.05;;;13.20;99.30;;;;;;4844619;29;20064;-89
2023/04/29 09:15:26;;;;;;;13.05;7.05;;;13.30;99.30;;;;;;4827578;29;20042;-90
2023/04/29 09:17:52;;;;;;;13.38;7.10;;;13.40;99.30;;;;;;4828375;29;20533;-91
2023/04/29 09:20:21;;;;;;;11.50;6.43;;;13.40;99.10;;;;;;4828620;29;20054;-90
2023/04/29 09:22:48;;;;;;;12.27;6.50;;;13.50;98.30;;;;;;4859175;29;20525;-90
2023/04/29 09:25:14;;;;;;;11.27;7.07;;;13.50;98.00;;;;;;4828902;29;20164;-89
2023/04/29 09:27:40;;;;;;;12.05;6.38;;;13.60;98.00;;;;;;4844486;29;20053;-91
2023/04/29 09:30:06;;;;;;;14.88;6.25;;;13.60;96.90;;;;;;4845243;29;20054;-90
2023/04/29 09:32:32;;;;;;;11.98;7.05;;;13.60;97.00;;;;;;4827974;29;20057;-92
2023/04/29 09:34:57;;;;;;;10.75;6.20;;;13.60;97.10;;;;;;4827923;29;20054;-89
2023/04/29 09:37:26;;;;;;;10.50;6.07;;;13.60;96.90;;;;;;4845009;29;20053;-90
2023/04/29 09:39:52;;;;;;;13.35;6.82;;;13.60;96.30;;;;;;4844572;29;20050;-89
2023/04/29 09:42:18;;;;;;;14.10;6.35;;;13.70;95.80;;;;;;4828049;29;20140;-87
2023/04/29 09:44:44;;;;;;;12.43;6.93;;;13.60;95.50;;;;;;4844332;29;20078;-89
2023/04/29 09:47:10;;;;;;;12.27;6.82;;;13.70;95.90;;;;;;4828341;29;20046;-90
2023/04/29 09:49:41;;;;;;;11.18;6.30;;;13.70;95.60;;;;;;4827609;29;20054;-94
2023/04/29 09:52:10;;;;;;;12.32;6.45;;;13.70;96.10;;;;;;4849799;29;20076;-92
2023/04/29 09:54:38;;;;;;;13.00;6.90;;;13.70;95.90;;;;;;4853566;29;20057;-89
2023/04/29 09:57:05;;;;;;;10.35;6.65;;;13.80;95.60;;;;;;4848052;29;20099;-91
2023/04/29 09:59:33;;;;;;;12.45;7.13;;;13.90;96.30;;;;;;4847665;29;20050;-90
2023/04/29 10:01:59;;;;;;;13.77;7.20;;;14.00;97.60;;;;;;4845632;29;20065;-90
2023/04/29 10:04:26;;;;;;;10.45;6.80;;;14.10;98.20;;;;;;4828191;29;20050;-90
2023/04/29 10:06:54;;;;;;;9.25;6.25;;;14.20;97.70;;;;;;4854196;29;20061;-92
2023/04/29 10:09:22;;;;;;;11.93;6.22;;;14.30;95.70;;;;;;4851023;29;20037;-91
2023/04/29 10:11:52;;;;;;;8.50;5.45;;;14.30;95.80;;;;;;4838895;29;20052;-92
2023/04/29 10:14:25;;;;;;;11.25;6.78;;;14.30;94.90;;;;;;4844526;29;20510;-92
2023/04/29 10:17:11;;;;;;;12.03;6.07;;;14.30;95.10;;;;;;4848410;29;20463;-93
2023/04/29 10:19:53;;;;;;;9.38;5.82;;;14.40;93.70;;;;;;4848135;29;20088;-92
2023/04/29 10:22:28;;;;;;;9.82;5.85;;;14.40;93.80;;;;;;4830969;29;20050;-90
2023/04/29 10:24:56;;;;;;;11.73;5.20;;;14.50;93.00;;;;;;4848995;29;20113;-90
2023/04/29 10:27:23;;;;;;;10.57;5.43;;;14.50;92.10;;;;;;4828465;29;20049;-89
2023/04/29 10:29:51;;;;;;;9.98;5.43;;;14.50;92.00;;;;;;4827587;29;20054;-91
2023/04/29 10:32:20;;;;;;;11.32;6.28;;;14.50;91.70;;;;;;4833157;29;20037;-91
2023/04/29 10:34:51;;;;;;;9.10;5.15;;;14.60;91.10;;;;;;4861061;29;20551;-91
2023/04/29 10:37:17;;;;;;;9.73;5.03;;;14.60;92.20;;;;;;4844826;29;20042;-90
2023/04/29 10:40:12;;;;;;;10.20;5.85;;;14.70;90.80;;;;;;4853464;29;20060;-90
2023/04/29 10:42:46;;;;;;;10.60;5.82;;;14.60;89.20;;;;;;4826508;29;20053;-91
2023/04/29 10:45:30;;;;;;;9.68;5.85;;;14.60;91.90;;;;;;4844209;29;20505;-91
2023/04/29 10:48:02;;;;;;;9.55;6.20;;;14.70;92.40;;;;;;4833231;29;20046;-91
2023/04/29 10:50:32;;;;;;;9.07;6.20;;;14.70;93.70;;;;;;4829052;29;20056;-91
2023/04/29 10:53:02;;;;;;;10.32;5.50;;;14.80;94.80;;;;;;4847384;29;20045;-88
2023/04/29 10:55:28;;;;;;;11.32;5.13;;;14.90;95.00;;;;;;4841717;29;20106;-90
2023/04/29 10:57:57;;;;;;;9.77;5.38;;;15.00;94.10;;;;;;4825906;29;20038;-90
2023/04/29 11:00:32;;;;;;;9.10;5.10;;;15.10;94.60;;;;;;4829236;29;20050;-89
2023/04/29 11:03:04;;;;;;;8.35;5.40;;;15.20;94.30;;;;;;4843691;29;20082;-91
2023/04/29 11:05:34;;;;;;;9.95;5.00;;;15.30;94.10;;;;;;4844266;29;20094;-89
2023/04/29 11:08:21;;;;;;;7.95;4.97;;;15.30;93.90;;;;;;4843441;29;20046;-87
2023/04/29 11:10:51;;;;;;;8.05;4.85;;;15.40;94.90;;;;;;4846203;29;20375;-90
2023/04/29 11:13:21;;;;;;;10.35;5.10;;;15.40;93.50;;;;;;4849342;29;20637;-91
2023/04/29 11:15:47;;;;;;;9.50;4.43;;;15.50;94.00;;;;;;4826879;29;20046;-90
2023/04/29 11:18:13;;;;;;;7.57;5.13;;;15.60;92.90;;;;;;4826566;29;20111;-88
2023/04/29 11:21:07;;;;;;;8.80;4.65;;;15.60;94.20;;;;;;4826997;29;20054;-89
2023/04/29 11:23:33;;;;;;;;;;;15.70;92.70;;;;;;4813157;29;20049;-90
2023/04/29 11:26:00;;;;;;;7.22;4.45;;;15.60;91.30;;;;;;4826041;29;20007;-89
2023/04/29 11:28:32;;;;;;;8.55;5.10;;;15.70;93.50;;;;;;4825040;29;20049;-88
2023/04/29 11:30:58;;;;;;;8.65;4.63;;;15.70;94.40;;;;;;4848275;29;20056;-89
2023/04/29 11:33:28;;;;;;;10.93;4.35;;;15.80;93.80;;;;;;4845493;29;20045;-89
2023/04/29 11:35:54;;;;;;;11.73;4.70;;;15.80;90.80;;;;;;4826201;29;20073;-90
2023/04/29 11:38:27;;;;;;;9.05;4.50;;;15.80;90.40;;;;;;4829841;29;20522;-90
2023/04/29 11:40:54;;;;;;;11.10;4.75;;;15.80;87.70;;;;;;4826821;29;20070;-89
2023/04/29 11:43:22;;;;;;;11.18;5.18;;;15.80;90.40;;;;;;4830229;29;20050;-86
2023/04/29 11:45:48;;;;;;;10.40;4.93;;;15.80;91.60;;;;;;4846159;29;20042;-88
2023/04/29 11:48:22;;;;;;;10.85;4.78;;;15.90;93.50;;;;;;4825147;29;20742;-89
2023/04/29 11:50:50;;;;;;;7.45;4.55;;;16.00;94.00;;;;;;4830910;29;20106;-89
2023/04/29 11:53:18;;;;;;;9.77;5.30;;;16.10;93.30;;;;;;4852073;29;20053;-89
2023/04/29 11:55:45;;;;;;;9.07;4.53;;;16.10;94.10;;;;;;4824600;29;20085;-90
2023/04/29 11:58:11;;;;;;;7.70;4.47;;;16.20;94.50;;;;;;4828907;29;20069;-88
2023/04/29 12:00:37;;;;;;;9.38;3.60;;;16.20;94.50;;;;;;4841434;29;20454;-90
2023/04/29 12:03:16;;;;;;;9.35;3.83;;;16.30;92.40;;;;;;4849569;29;20042;-89
2023/04/29 12:05:54;;;;;;;7.57;4.18;;;16.30;90.90;;;;;;4824397;29;20457;-87
2023/04/29 12:08:24;;;;;;;6.45;2.80;;;16.40;93.20;;;;;;4844645;29;20402;-89
2023/04/29 12:10:55;;;;;;;5.82;2.45;;;16.40;90.30;;;;;;4847744;29;20044;-91
2023/04/29 12:13:23;;;;;;;8.15;2.78;;;16.40;83.90;;;;;;4843453;29;20046;-88
2023/04/29 12:15:50;;;;;;;8.20;3.35;;;16.30;82.70;;;;;;4846815;29;20061;-88
2023/04/29 12:18:21;;;;;;;9.27;2.75;;;16.30;85.70;;;;;;4848230;29;20077;-89
2023/04/29 12:20:47;;;;;;;8.23;2.90;;;16.30;81.20;;;;;;4849800;29;20116;-89
2023/04/29 12:23:17;;;;;;;8.65;3.20;;;16.20;81.60;;;;;;4851541;29;20054;-90
2023/04/29 12:25:51;;;;;;;7.70;3.20;;;16.20;87.90;;;;;;4842873;29;20041;-88
2023/04/29 12:28:17;;;;;;;5.82;3.03;;;16.20;91.50;;;;;;4835954;29;20064;-91
2023/04/29 12:30:44;;;;;;;7.00;2.72;;;16.20;90.50;;;;;;4856618;29;20049;-91
2023/04/29 12:33:14;;;;;;;7.20;2.70;;;16.20;88.20;;;;;;4864488;29;20049;-90
2023/04/29 12:35:40;;;;;;;7.15;2.70;;;16.20;89.20;;;;;;4847700;29;20397;-89
2023/04/29 12:38:06;;;;;;;5.07;2.17;;;16.20;88.50;;;;;;4848171;29;20052;-91